Time;durP1;ratioP1;P1;durP2;ratioP2;P2;SDS_P1;SDS_P2;PMS_P1;PMS_P2;Temp;Humidity;BMP_temperature;BMP_pressure;BME280_temperature;BME280_humidity;BME280_pressure;Samples;Min_cycle;Max_cycle;Signal;HPM_P1;HPM_P2
2023/04/08 00:00:49;;;;;;;;;12.33;8.00;;;;;10.71;57.70;101907.41;4979912;28;45358;-45
2023/04/08 00:03:15;;;;;;;;;8.00;6.67;;;;;10.68;58.27;101907.63;4997911;28;45235;-42
2023/04/08 00:05:40;;;;;;;;;7.00;7.00;;;;;10.68;58.15;101901.47;4997228;28;46976;-45
2023/04/08 00:08:06;;;;;;;;;4.67;4.67;;;;;10.63;58.67;101907.16;4997492;28;45236;-44
2023/04/08 00:10:31;;;;;;;;;8.67;7.00;;;;;10.66;58.69;101906.91;4997531;28;45301;-44
2023/04/08 00:12:56;;;;;;;;;11.33;7.67;;;;;10.62;58.33;101899.25;4997201;28;45363;-46
2023/04/08 00:15:22;;;;;;;;;12.67;7.67;;;;;10.64;58.38;101908.00;4997263;28;49394;-45
2023/04/08 00:17:47;;;;;;;;;10.00;6.00;;;;;10.60;58.58;101910.03;4997095;28;45483;-45
2023/04/08 00:20:12;;;;;;;;;9.67;7.33;;;;;10.57;58.81;101909.44;4979785;28;45819;-45
2023/04/08 00:22:38;;;;;;;;;11.00;4.33;;;;;10.54;58.66;101907.88;4997347;28;45322;-47
2023/04/08 00:25:05;;;;;;;;;10.33;6.33;;;;;10.43;58.03;101900.69;4997135;28;45829;-43
2023/04/08 00:27:32;;;;;;;;;6.00;3.00;;;;;10.47;59.03;101909.28;4997229;28;45311;-45
2023/04/08 00:29:58;;;;;;;;;9.33;6.33;;;;;10.45;59.23;101906.75;4997103;28;45390;-46
2023/04/08 00:32:24;;;;;;;;;6.67;5.67;;;;;10.43;58.98;101916.66;4997234;28;45284;-42
2023/04/08 00:34:50;;;;;;;;;13.00;3.00;;;;;10.39;59.47;101911.69;4996778;28;46076;-44
2023/04/08 00:37:16;;;;;;;;;6.67;6.00;;;;;10.37;58.95;101913.63;4997074;28;45254;-45
2023/04/08 00:39:41;;;;;;;;;7.33;5.67;;;;;10.21;59.10;101893.47;4997397;28;45338;-45
2023/04/08 00:42:07;;;;;;;;;8.00;6.00;;;;;10.26;58.69;101908.28;4995655;28;45563;-43
2023/04/08 00:44:32;;;;;;;;;9.67;6.00;;;;;10.26;59.34;101917.09;4996816;28;45398;-43
2023/04/08 00:46:57;;;;;;;;;7.33;7.00;;;;;10.24;59.06;101922.53;4997007;28;45420;-43
2023/04/08 00:49:25;;;;;;;;;8.00;7.00;;;;;10.22;59.04;101923.56;4996882;28;45450;-42
2023/04/08 00:51:50;;;;;;;;;7.00;6.00;;;;;10.18;59.63;101917.63;4997199;28;45432;-43
2023/04/08 00:54:16;;;;;;;;;8.33;6.33;;;;;10.07;59.81;101912.28;4996601;28;46138;-43
2023/04/08 00:56:42;;;;;;;;;8.67;8.00;;;;;10.11;59.76;101928.84;4996662;28;45452;-43
2023/04/08 00:59:08;;;;;;;;;6.00;6.00;;;;;10.09;60.39;101918.31;4996959;28;45282;-43
2023/04/08 01:01:44;;;;;;;;;8.33;7.67;;;;;10.04;60.17;101914.31;4996923;28;45335;-45
2023/04/08 01:04:22;;;;;;;;;7.67;6.00;;;;;10.05;59.25;101924.84;4996786;28;45215;-42
2023/04/08 01:06:47;;;;;;;;;7.00;5.67;;;;;10.02;58.62;101924.22;4996441;28;45406;-43
2023/04/08 01:09:12;;;;;;;;;6.33;4.33;;;;;9.99;58.48;101920.00;4997005;28;45452;-44
2023/04/08 01:11:43;;;;;;;;;5.67;5.67;;;;;9.95;59.49;101923.84;4996873;28;45286;-46
2023/04/08 01:14:15;;;;;;;;;10.00;6.67;;;;;9.83;59.96;101903.47;4996536;28;46069;-45
2023/04/08 01:16:42;;;;;;;;;8.67;6.67;;;;;9.94;59.60;101925.66;4996465;28;45388;-46
2023/04/08 01:19:14;;;;;;;;;7.00;7.00;;;;;9.92;59.77;101924.91;4996563;28;45243;-43
2023/04/08 01:21:39;;;;;;;;;6.00;6.00;;;;;9.94;58.59;101927.44;4996984;28;45476;-46
2023/04/08 01:24:16;;;;;;;;;7.67;5.67;;;;;9.91;59.03;101923.22;4996153;28;45631;-44
2023/04/08 01:26:43;;;;;;;;;5.00;4.33;;;;;9.90;59.27;101918.88;4996388;28;45453;-43
2023/04/08 01:29:10;;;;;;;;;7.67;6.00;;;;;9.86;59.53;101924.50;4997454;28;45264;-46
2023/04/08 01:31:37;;;;;;;;;5.33;5.00;;;;;9.88;59.40;101933.22;4999922;28;45421;-44
2023/04/08 01:34:05;;;;;;;;;6.00;6.00;;;;;9.85;59.17;101920.16;4999526;28;46118;-44
2023/04/08 01:36:31;;;;;;;;;6.00;3.00;;;;;9.84;59.61;101919.28;4999788;28;45496;-44
2023/04/08 01:38:59;;;;;;;;;12.33;6.00;;;;;9.86;59.70;101924.50;4999275;28;45415;-45
2023/04/08 01:41:25;;;;;;;;;10.33;6.67;;;;;9.84;59.91;101921.13;4999774;28;45338;-44
2023/04/08 01:43:52;;;;;;;;;7.00;5.67;;;;;9.82;59.61;101915.03;4999241;28;45258;-44
2023/04/08 01:46:19;;;;;;;;;2.00;2.00;;;;;9.79;59.26;101921.47;4999511;28;45545;-43
2023/04/08 01:48:47;;;;;;;;;6.00;6.00;;;;;9.72;60.14;101910.41;4999680;28;45349;-45
2023/04/08 01:51:14;;;;;;;;;10.67;5.00;;;;;9.73;60.33;101920.09;4999689;28;45317;-45
2023/04/08 01:53:40;;;;;;;;;5.00;5.00;;;;;9.73;60.12;101920.09;4999302;28;45205;-44
2023/04/08 01:56:10;;;;;;;;;9.67;5.00;;;;;9.70;60.01;101908.84;4999592;28;45429;-45
2023/04/08 01:58:39;;;;;;;;;3.00;3.00;;;;;9.67;59.64;101909.91;4999529;28;45492;-43
2023/04/08 02:01:10;;;;;;;;;9.33;5.33;;;;;9.56;59.45;101896.56;4999603;28;45176;-45
2023/04/08 02:03:36;;;;;;;;;5.00;5.00;;;;;9.64;59.60;101912.78;4998897;28;46121;-46
2023/04/08 02:06:01;;;;;;;;;5.67;5.67;;;;;9.58;60.49;101909.75;4999148;28;45460;-44
2023/04/08 02:08:27;;;;;;;;;9.67;6.67;;;;;9.58;59.55;101913.25;4999378;28;45215;-44
2023/04/08 02:10:52;;;;;;;;;4.33;3.00;;;;;9.57;59.37;101924.84;4999475;28;45227;-47
2023/04/08 02:13:17;;;;;;;;;5.00;5.00;;;;;9.56;60.03;101915.16;4998804;28;51739;-46
2023/04/08 02:15:50;;;;;;;;;7.00;6.25;;;;;9.55;59.89;101916.13;4998897;28;45244;-47
2023/04/08 02:18:23;;;;;;;;;6.00;3.00;;;;;9.54;59.43;101919.75;4999065;28;45415;-44
2023/04/08 02:21:21;;;;;;;;;7.00;6.33;;;;;9.51;60.38;101914.63;4999359;28;45457;-45
2023/04/08 02:23:50;;;;;;;;;8.00;6.00;;;;;9.48;59.96;101912.19;4937899;28;46403;-46
2023/04/08 02:26:16;;;;;;;;;6.33;3.00;;;;;9.44;59.79;101910.75;4938242;28;45471;-45
2023/04/08 02:28:42;;;;;;;;;4.67;4.33;;;;;9.34;60.25;101891.94;4938140;28;45411;-45
2023/04/08 02:31:12;;;;;;;;;9.00;6.00;;;;;9.43;60.16;101906.38;4938265;28;45308;-44
2023/04/08 02:33:38;;;;;;;;;5.33;5.33;;;;;9.43;60.74;101911.69;4938027;28;46125;-43
2023/04/08 02:36:04;;;;;;;;;6.00;6.00;;;;;9.41;59.75;101911.81;4937506;28;45438;-46
2023/04/08 02:38:30;;;;;;;;;5.67;5.00;;;;;9.37;60.11;101910.34;4937991;28;45404;-43
2023/04/08 02:40:55;;;;;;;;;6.50;6.50;;;;;9.36;59.86;101910.44;4937154;28;45447;-45
2023/04/08 02:43:25;;;;;;;;;9.67;7.00;;;;;9.33;59.83;101905.34;4937404;28;45424;-44
2023/04/08 02:45:51;;;;;;;;;8.67;5.00;;;;;9.30;60.84;101917.03;4937921;28;45569;-45
2023/04/08 02:48:16;;;;;;;;;10.00;6.00;;;;;9.32;60.74;101915.13;4937838;28;45548;-44
2023/04/08 02:50:41;;;;;;;;;6.00;6.00;;;;;9.31;60.87;101918.72;4938241;28;45301;-43
2023/04/08 02:53:08;;;;;;;;;9.67;6.00;;;;;9.29;60.00;101918.00;4937540;28;51458;-43
2023/04/08 02:55:33;;;;;;;;;9.25;7.00;;;;;9.24;60.92;101907.72;4937655;28;45365;-43
2023/04/08 02:57:59;;;;;;;;;13.25;8.50;;;;;9.27;60.51;101919.94;4937851;28;45415;-45
2023/04/08 03:00:24;;;;;;;;;6.00;6.00;;;;;9.26;60.98;101918.22;4975217;28;45529;-42
2023/04/08 03:02:50;;;;;;;;;9.67;6.00;;;;;9.23;60.33;101919.28;4998150;28;47078;-46
2023/04/08 03:05:15;;;;;;;;;7.00;7.00;;;;;9.19;60.40;101915.16;4998467;28;45862;-44
2023/04/08 03:07:41;;;;;;;;;9.00;8.00;;;;;9.20;60.59;101922.16;4998253;28;45204;-44
2023/04/08 03:10:07;;;;;;;;;10.75;7.50;;;;;9.05;60.94;101904.66;4998678;28;45418;-45
2023/04/08 03:12:32;;;;;;;;;12.33;8.33;;;;;9.17;60.19;101918.88;4997933;28;47407;-44
2023/04/08 03:14:57;;;;;;;;;16.00;6.75;;;;;9.14;60.50;101927.03;4998180;28;45286;-45
2023/04/08 03:17:23;;;;;;;;;14.00;9.00;;;;;9.11;61.47;101921.97;4998459;28;45349;-43
2023/04/08 03:19:48;;;;;;;;;11.50;9.25;;;;;9.08;61.49;101930.13;4998328;28;45504;-47
2023/04/08 03:22:14;;;;;;;;;11.00;6.25;;;;;9.08;60.94;101912.41;4998096;28;45448;-42
2023/04/08 03:24:39;;;;;;;;;14.00;10.75;;;;;9.09;60.96;101919.41;4997966;28;45365;-42
2023/04/08 03:27:05;;;;;;;;;10.00;10.00;;;;;9.03;60.52;101911.88;4998151;28;45403;-43
2023/04/08 03:29:31;;;;;;;;;11.75;11.75;;;;;9.08;60.63;101916.88;4998217;28;45504;-42
2023/04/08 03:31:56;;;;;;;;;11.75;9.25;;;;;9.07;61.31;101921.34;4997828;28;46171;-44
2023/04/08 03:34:21;;;;;;;;;14.50;7.00;;;;;9.02;60.71;101923.47;4997827;28;45345;-43
2023/04/08 03:36:47;;;;;;;;;12.00;7.00;;;;;9.03;60.86;101924.31;4998018;28;45738;-44
2023/04/08 03:39:12;;;;;;;;;13.00;10.50;;;;;9.00;61.35;101920.91;4998181;28;45323;-46
2023/04/08 03:41:38;;;;;;;;;9.50;7.75;;;;;8.96;61.48;101919.41;4997683;28;46034;-44
2023/04/08 03:44:03;;;;;;;;;11.00;10.00;;;;;8.93;61.13;101921.44;4997567;28;45453;-45
2023/04/08 03:46:28;;;;;;;;;9.33;7.00;;;;;8.90;61.65;101927.81;4997885;28;45540;-44
2023/04/08 03:48:54;;;;;;;;;9.00;6.75;;;;;8.88;61.19;101923.56;4998059;28;45392;-46
2023/04/08 03:51:19;;;;;;;;;8.25;8.25;;;;;8.84;61.20;101925.56;4997580;28;45639;-46
2023/04/08 03:53:44;;;;;;;;;10.00;9.50;;;;;8.88;60.87;101924.41;4997521;28;47396;-45
2023/04/08 03:56:10;;;;;;;;;10.75;7.25;;;;;8.88;61.25;101926.22;4997839;28;45399;-44
2023/04/08 03:58:35;;;;;;;;;8.50;7.25;;;;;8.87;61.39;101929.84;4997763;28;45488;-44
2023/04/08 04:01:00;;;;;;;;;10.50;8.50;;;;;8.84;61.50;101940.66;4997519;28;45406;-43
2023/04/08 04:03:26;;;;;;;;;11.00;8.75;;;;;8.80;61.15;101934.69;4997488;28;45242;-43
2023/04/08 04:05:51;;;;;;;;;11.50;7.50;;;;;8.81;61.55;101932.94;4997488;28;45210;-46
2023/04/08 04:08:17;;;;;;;;;12.75;9.00;;;;;8.79;61.24;101932.16;4997632;28;45362;-43
2023/04/08 04:10:42;;;;;;;;;12.50;7.25;;;;;8.79;61.27;101929.50;4997258;28;45278;-45
2023/04/08 04:13:07;;;;;;;;;12.00;10.00;;;;;8.77;61.41;101937.59;4997018;28;45403;-45
2023/04/08 04:15:37;;;;;;;;;35.00;23.00;;;;;8.78;60.44;101933.13;4997333;28;45341;-51
2023/04/08 04:18:02;;;;;;;;;83.00;60.00;;;;;8.75;62.36;101927.06;4997660;28;45337;-43
2023/04/08 04:20:29;;;;;;;;;17.00;14.75;;;;;8.77;60.95;101942.06;4996858;28;53067;-44
2023/04/08 04:22:54;;;;;;;;;14.75;9.50;;;;;8.74;61.99;101927.19;4997260;28;45363;-45
2023/04/08 04:25:19;;;;;;;;;17.25;13.25;;;;;8.77;61.87;101934.09;4997158;28;45313;-45
2023/04/08 04:27:45;;;;;;;;;14.75;6.25;;;;;8.74;61.10;101941.28;4997418;28;45415;-44
2023/04/08 04:30:14;;;;;;;;;10.00;10.00;;;;;8.72;60.74;101940.56;4997061;28;45371;-44
2023/04/08 04:32:39;;;;;;;;;13.50;11.00;;;;;8.70;60.82;101933.66;4997200;28;45392;-42
2023/04/08 04:35:05;;;;;;;;;12.50;11.25;;;;;8.66;61.63;101932.16;4997102;28;45393;-44
2023/04/08 04:37:30;;;;;;;;;13.25;8.50;;;;;8.68;61.65;101940.84;4997376;28;45649;-46
2023/04/08 04:39:55;;;;;;;;;12.75;10.00;;;;;8.69;61.78;101940.75;4979383;28;46938;-44
2023/04/08 04:42:21;;;;;;;;;13.25;10.25;;;;;8.68;61.60;101947.03;4997028;28;45283;-44
2023/04/08 04:44:46;;;;;;;;;13.00;9.25;;;;;8.70;60.87;101946.91;4996982;28;45235;-45
2023/04/08 04:47:11;;;;;;;;;12.50;9.00;;;;;8.67;61.99;101950.63;4997148;28;45314;-44
2023/04/08 04:49:39;;;;;;;;;11.50;9.75;;;;;8.67;62.21;101949.78;4996749;28;50834;-44
2023/04/08 04:52:04;;;;;;;;;12.25;8.00;;;;;8.66;61.12;101956.88;4979117;28;45188;-42
2023/04/08 04:54:30;;;;;;;;;16.50;9.50;;;;;8.57;62.10;101943.41;4996773;28;45365;-43
2023/04/08 04:56:55;;;;;;;;;13.75;11.50;;;;;8.66;62.20;101969.31;4997050;28;45287;-44
2023/04/08 04:59:20;;;;;;;;;14.25;9.50;;;;;8.62;62.47;101967.81;4996492;28;51794;-45
2023/04/08 05:01:46;;;;;;;;;14.50;10.75;;;;;8.61;62.25;101971.41;4996884;28;45303;-43
2023/04/08 05:04:11;;;;;;;;;12.00;12.00;;;;;8.60;61.84;101978.53;4997896;28;45517;-46
2023/04/08 05:06:36;;;;;;;;;13.25;10.25;;;;;8.59;62.35;101982.13;5000559;28;45431;-43
2023/04/08 05:09:02;;;;;;;;;14.00;11.25;;;;;8.59;61.73;101975.97;5000127;28;46135;-43
2023/04/08 05:11:27;;;;;;;;;14.25;13.00;;;;;8.59;62.22;101979.47;5000069;28;45172;-44
2023/04/08 05:13:52;;;;;;;;;18.50;13.00;;;;;8.60;61.50;101980.34;4999981;28;45288;-43
2023/04/08 05:16:17;;;;;;;;;13.75;10.75;;;;;8.58;61.76;101977.78;5000214;28;45318;-43
2023/04/08 05:18:43;;;;;;;;;15.25;10.75;;;;;8.60;62.66;101983.00;4999730;28;50571;-45
2023/04/08 05:21:09;;;;;;;;;14.25;11.00;;;;;8.59;61.81;101984.75;4999874;28;45343;-45
2023/04/08 05:23:34;;;;;;;;;21.00;11.50;;;;;8.59;62.12;101990.06;5000067;28;45333;-42
2023/04/08 05:26:00;;;;;;;;;15.75;12.50;;;;;8.58;61.68;101991.03;5000106;28;45338;-42
2023/04/08 05:28:26;;;;;;;;;19.25;12.00;;;;;8.53;61.90;101979.88;4999753;28;46020;-44
2023/04/08 05:30:51;;;;;;;;;13.00;10.00;;;;;8.52;61.73;101982.66;4999897;28;45294;-45
2023/04/08 05:33:17;;;;;;;;;20.25;13.00;;;;;8.58;61.97;101999.00;4999949;28;45336;-43
2023/04/08 05:35:43;;;;;;;;;14.75;13.25;;;;;8.57;61.25;101999.09;5000050;28;45418;-43
2023/04/08 05:38:09;;;;;;;;;14.00;12.50;;;;;8.56;62.75;101998.25;4999396;28;46279;-43
2023/04/08 05:40:34;;;;;;;;;13.75;10.50;;;;;8.55;61.15;102001.84;4999693;28;45278;-43
2023/04/08 05:43:00;;;;;;;;;13.50;13.00;;;;;8.58;61.96;102004.28;4999617;28;45291;-43
2023/04/08 05:45:27;;;;;;;;;16.50;13.75;;;;;8.58;61.82;102001.63;4999720;28;45410;-44
2023/04/08 05:47:52;;;;;;;;;15.75;10.00;;;;;8.60;61.58;102009.53;4999931;28;45261;-44
2023/04/08 05:50:17;;;;;;;;;19.75;13.00;;;;;8.59;61.35;102013.94;4999240;28;45508;-43
2023/04/08 05:52:43;;;;;;;;;18.00;12.75;;;;;8.59;61.40;102010.44;4999625;28;45420;-44
2023/04/08 05:55:10;;;;;;;;;18.50;16.25;;;;;8.61;61.48;102014.72;4982088;28;45399;-45
2023/04/08 05:57:35;;;;;;;;;20.50;13.25;;;;;8.66;61.84;102020.53;4999565;28;45421;-43
2023/04/08 06:00:01;;;;;;;;;18.75;13.50;;;;;8.69;62.08;102024.81;4999163;28;45428;-46
2023/04/08 06:02:26;;;;;;;;;14.25;11.50;;;;;8.72;61.90;102022.81;4999568;28;45484;-46
2023/04/08 06:04:52;;;;;;;;;21.75;16.50;;;;;8.75;61.46;102029.69;4999675;28;45318;-46
2023/04/08 06:07:17;;;;;;;;;21.75;16.25;;;;;8.75;61.13;102033.19;4999239;28;46566;-44
2023/04/08 06:09:42;;;;;;;;;12.75;9.25;;;;;8.79;61.48;102033.00;4999742;28;45507;-43
2023/04/08 06:12:08;;;;;;;;;22.25;17.75;;;;;8.82;61.82;102030.13;5000120;28;45223;-44
2023/04/08 06:14:33;;;;;;;;;19.00;16.00;;;;;8.84;61.19;102031.72;4999443;28;45508;-43
2023/04/08 06:16:58;;;;;;;;;15.75;14.50;;;;;8.83;61.31;102029.19;4999135;28;46015;-44
2023/04/08 06:19:24;;;;;;;;;23.50;13.00;;;;;8.81;61.04;102033.75;4999520;28;45444;-45
2023/04/08 06:21:50;;;;;;;;;16.75;13.75;;;;;8.84;60.37;102033.53;4998780;28;45361;-44
2023/04/08 06:24:15;;;;;;;;;19.00;17.00;;;;;8.89;61.23;102034.94;4999104;28;45389;-45
2023/04/08 06:26:41;;;;;;;;;16.25;14.25;;;;;8.94;61.38;102038.13;4998807;28;45901;-43
2023/04/08 06:29:07;;;;;;;;;23.25;14.50;;;;;8.94;60.79;102031.97;4998651;28;45215;-46
2023/04/08 06:31:32;;;;;;;;;13.00;13.00;;;;;9.01;60.91;102043.84;4999140;28;45299;-45
2023/04/08 06:33:57;;;;;;;;;25.75;15.50;;;;;8.99;60.32;102038.66;4999045;28;45378;-45
2023/04/08 06:36:23;;;;;;;;;24.75;20.25;;;;;8.95;60.34;102033.66;4998812;28;45445;-44
2023/04/08 06:38:48;;;;;;;;;23.50;18.75;;;;;9.02;60.23;102045.56;4998713;28;45413;-44
2023/04/08 06:41:13;;;;;;;;;23.25;17.75;;;;;9.05;60.62;102049.78;4998719;28;45424;-43
2023/04/08 06:43:39;;;;;;;;;26.50;18.00;;;;;9.07;59.48;102043.44;4998744;28;45492;-44
2023/04/08 06:46:04;;;;;;;;;18.25;18.25;;;;;9.10;60.13;102048.53;4998208;28;46189;-44
2023/04/08 06:48:30;;;;;;;;;30.00;19.50;;;;;9.17;60.29;102052.44;4998599;28;45424;-46
2023/04/08 06:50:56;;;;;;;;;24.00;15.25;;;;;9.23;59.07;102067.97;4998682;28;45388;-43
2023/04/08 06:53:22;;;;;;;;;25.50;21.25;;;;;9.25;59.13;102079.31;4998958;28;45322;-43
2023/04/08 06:55:47;;;;;;;;;19.25;13.00;;;;;9.33;59.68;102080.63;4998370;28;47417;-43
2023/04/08 06:58:13;;;;;;;;;23.00;19.75;;;;;9.37;59.37;102076.78;4998037;28;45219;-43
2023/04/08 07:00:38;;;;;;;;;32.25;19.00;;;;;9.46;59.68;102090.28;4998433;28;45241;-44
2023/04/08 07:03:03;;;;;;;;;20.25;18.75;;;;;9.55;59.00;102083.47;4999330;28;45316;-45
2023/04/08 07:05:28;;;;;;;;;25.25;17.25;;;;;9.65;58.44;102088.97;4998709;28;49691;-45
2023/04/08 07:07:54;;;;;;;;;23.00;18.25;;;;;9.77;59.26;102084.63;4998585;28;45306;-43
2023/04/08 07:10:19;;;;;;;;;21.75;18.50;;;;;9.95;58.25;102084.16;4998636;28;45413;-45
2023/04/08 07:12:45;;;;;;;;;21.50;18.50;;;;;10.23;58.03;102098.13;4981169;28;45275;-46
2023/04/08 07:15:10;;;;;;;;;30.25;20.75;;;;;10.70;56.93;102089.34;4998113;28;46282;-44
2023/04/08 07:17:35;;;;;;;;;25.50;19.50;;;;;11.26;55.97;102083.34;4997941;28;45341;-44
2023/04/08 07:20:01;;;;;;;;;21.50;17.00;;;;;11.88;54.68;102090.94;4998399;28;45422;-42
2023/04/08 07:22:26;;;;;;;;;22.00;16.00;;;;;12.45;53.82;102081.81;4998170;28;45237;-43
2023/04/08 07:24:51;;;;;;;;;29.67;21.00;;;;;12.96;51.61;102077.59;4997818;28;46081;-43
2023/04/08 07:27:17;;;;;;;;;22.33;17.00;;;;;13.51;50.63;102090.78;4997436;28;45190;-48
2023/04/08 07:29:42;;;;;;;;;25.67;19.00;;;;;14.06;49.48;102078.75;4997979;28;45317;-44
2023/04/08 07:32:07;;;;;;;;;26.00;20.00;;;;;14.69;48.34;102073.94;4998167;28;45397;-43
2023/04/08 07:34:35;;;;;;;;;22.00;19.67;;;;;15.30;46.57;102083.47;4997843;28;47020;-45
2023/04/08 07:37:00;;;;;;;;;19.00;15.67;;;;;15.91;46.39;102082.13;4997974;28;45454;-45
2023/04/08 07:39:26;;;;;;;;;29.00;19.00;;;;;16.49;44.13;102079.09;4997878;28;45316;-46
2023/04/08 07:41:51;;;;;;;;;22.00;21.33;;;;;17.11;43.40;102080.00;4997850;28;45420;-44
2023/04/08 07:44:18;;;;;;;;;27.67;20.00;;;;;17.49;43.88;102080.56;4997336;28;45997;-44
2023/04/08 07:46:45;;;;;;;;;22.33;18.00;;;;;17.98;41.37;102077.28;4980150;28;45278;-45
2023/04/08 07:49:10;;;;;;;;;27.67;22.00;;;;;18.35;40.26;102082.28;4997821;28;45250;-46
2023/04/08 07:51:36;;;;;;;;;20.33;18.33;;;;;18.64;40.72;102085.34;4997752;28;45521;-46
2023/04/08 07:54:01;;;;;;;;;23.33;18.33;;;;;18.87;39.07;102074.75;4997317;28;46301;-48
2023/04/08 07:56:27;;;;;;;;;24.00;19.00;;;;;19.20;38.47;102086.38;4997618;28;45241;-45
2023/04/08 07:58:53;;;;;;;;;20.00;14.00;;;;;19.53;37.34;102086.31;4997353;28;45482;-46
2023/04/08 08:01:20;;;;;;;;;17.67;14.67;;;;;19.80;37.33;102086.91;4997560;28;45518;-45
2023/04/08 08:03:50;;;;;;;;;18.67;15.00;;;;;20.21;37.12;102081.34;4996973;28;46074;-44
2023/04/08 08:06:16;;;;;;;;;15.67;12.00;;;;;20.63;35.67;102087.16;4997276;28;45389;-47
2023/04/08 08:08:41;;;;;;;;;18.33;16.00;;;;;20.97;36.42;102083.19;4997424;28;45286;-45
2023/04/08 08:11:07;;;;;;;;;20.67;17.00;;;;;21.26;33.97;102085.09;4997564;28;45371;-43
2023/04/08 08:13:33;;;;;;;;;14.33;13.67;;;;;21.74;33.77;102082.06;4996712;28;45369;-44
2023/04/08 08:15:58;;;;;;;;;20.25;16.50;;;;;22.36;33.00;102084.31;4997166;28;45359;-46
2023/04/08 08:18:23;;;;;;;;;21.00;19.00;;;;;23.01;32.34;102080.59;4997346;28;45377;-46
2023/04/08 08:20:49;;;;;;;;;19.75;17.75;;;;;23.40;31.50;102079.19;4997550;28;45267;-45
2023/04/08 08:23:14;;;;;;;;;20.25;19.25;;;;;23.63;30.52;102087.88;4997017;28;46123;-46
2023/04/08 08:25:40;;;;;;;;;26.25;20.25;;;;;23.88;30.05;102087.41;4997068;28;45290;-44
2023/04/08 08:28:05;;;;;;;;;18.75;17.75;;;;;23.82;30.49;102088.25;4997330;28;45342;-44
2023/04/08 08:30:30;;;;;;;;;19.00;14.00;;;;;23.78;32.05;102087.78;4997397;28;45354;-44
2023/04/08 08:32:57;;;;;;;;;18.00;16.75;;;;;23.32;31.84;102095.63;4997147;28;46207;-44
2023/04/08 08:35:23;;;;;;;;;15.75;12.00;;;;;22.83;30.97;102096.47;4997106;28;45424;-46
2023/04/08 08:37:49;;;;;;;;;19.75;15.50;;;;;22.37;32.27;102089.53;4997160;28;45235;-43
2023/04/08 08:40:15;;;;;;;;;17.50;13.50;;;;;22.24;32.99;102089.38;4999882;28;45524;-46
2023/04/08 08:42:41;;;;;;;;;9.50;9.00;;;;;22.10;33.02;102099.22;5000322;28;47273;-47
2023/04/08 08:45:07;;;;;;;;;18.50;15.75;;;;;22.38;32.62;102090.41;5000531;28;45275;-49
2023/04/08 08:47:33;;;;;;;;;14.25;9.75;;;;;22.34;33.62;102080.97;5000329;28;45172;-49
2023/04/08 08:49:58;;;;;;;;;20.50;15.75;;;;;22.42;31.86;102097.13;5000602;28;45326;-50
2023/04/08 08:52:24;;;;;;;;;26.50;22.00;;;;;22.59;32.23;102095.00;4982738;28;45486;-48
2023/04/08 08:54:57;;;;;;;;;16.50;14.75;;;;;23.02;31.91;102097.72;5000387;28;45550;-44
2023/04/08 08:57:22;;;;;;;;;24.75;20.75;;;;;23.29;30.67;102093.31;5000363;28;45288;-51
2023/04/08 08:59:48;;;;;;;;;18.25;14.00;;;;;23.77;30.58;102094.28;5000592;28;45183;-48
2023/04/08 09:02:30;;;;;;;;;19.25;14.75;;;;;24.32;30.26;102080.69;4999935;28;45286;-48
2023/04/08 09:05:03;;;;;;;;;14.25;13.25;;;;;24.76;29.41;102082.03;5000151;28;45365;-47
2023/04/08 09:07:34;;;;;;;;;16.50;14.75;;;;;25.22;29.27;102081.22;5000395;28;45380;-47
2023/04/08 09:10:00;;;;;;;;;19.75;16.75;;;;;26.18;28.07;102095.00;5000738;28;45582;-49
2023/04/08 09:12:27;;;;;;;;;15.25;14.00;;;;;27.91;25.39;102096.31;4999870;28;46403;-48
2023/04/08 09:15:03;;;;;;;;;19.80;12.80;;;;;30.19;23.59;102104.94;5000182;28;45363;-46
2023/04/08 09:17:37;;;;;;;;;16.00;14.40;;;;;31.76;22.98;102092.06;4982336;28;45547;-47
2023/04/08 09:20:10;;;;;;;;;18.60;15.20;;;;;32.53;21.21;102094.66;5000356;28;45317;-47
2023/04/08 09:22:54;;;;;;;;;15.40;12.20;;;;;33.82;19.44;102086.13;5000153;28;46119;-49
2023/04/08 09:25:24;;;;;;;;;14.80;13.20;;;;;34.98;18.36;102090.22;5000016;28;45483;-48
2023/04/08 09:27:50;;;;;;;;;14.80;14.40;;;;;35.60;17.30;102090.06;5000111;28;45353;-48
2023/04/08 09:30:16;;;;;;;;;14.80;13.80;;;;;36.16;17.61;102087.06;5000071;28;45421;-46
2023/04/08 09:32:49;;;;;;;;;13.00;13.00;;;;;36.44;17.30;102085.47;4999756;28;46093;-49
2023/04/08 09:35:16;;;;;;;;;14.40;13.20;;;;;36.95;17.23;102083.13;4999821;28;45285;-49
2023/04/08 09:37:41;;;;;;;;;17.00;15.00;;;;;37.11;17.59;102083.78;4999858;28;45176;-49
2023/04/08 09:40:07;;;;;;;;;21.00;14.25;;;;;37.69;15.30;102077.31;4999890;28;45440;-47
2023/04/08 09:42:38;;;;;;;;;16.00;15.00;;;;;38.35;16.06;102084.75;4999368;28;45249;-55
2023/04/08 09:45:05;;;;;;;;;12.40;12.40;;;;;38.64;14.98;102089.25;4999560;28;45224;-47
2023/04/08 09:47:57;;;;;;;;;10.80;9.60;;;;;38.53;15.53;102087.78;4999607;28;45324;-49
2023/04/08 09:50:35;;;;;;;;;10.60;8.80;;;;;39.03;15.56;102083.31;4999056;28;45357;-48
2023/04/08 09:53:27;;;;;;;;;22.20;13.20;;;;;39.55;14.58;102089.50;4999670;28;46632;-50
2023/04/08 09:55:56;;;;;;;;;20.00;12.60;;;;;39.92;14.31;102090.41;4992094;28;45440;-49
2023/04/08 09:58:28;;;;;;;;;16.80;12.60;;;;;40.39;14.46;102091.81;4999386;28;45434;-50
2023/04/08 10:00:54;;;;;;;;;11.00;10.40;;;;;40.89;13.97;102088.06;4999691;28;45266;-47
2023/04/08 10:03:30;;;;;;;;;11.80;10.80;;;;;40.48;14.74;102083.50;4998739;28;46174;-51
2023/04/08 10:06:00;;;;;;;;;14.40;12.60;;;;;40.71;12.87;102087.16;4999429;28;45408;-49
2023/04/08 10:08:26;;;;;;;;;14.00;11.40;;;;;41.14;13.28;102083.78;4999724;28;45360;-48
2023/04/08 10:10:52;;;;;;;;;11.60;11.60;;;;;41.19;12.88;102089.19;4999668;28;45397;-48
2023/04/08 10:13:18;;;;;;;;;14.00;13.60;;;;;41.23;12.91;102086.59;4999256;28;46234;-46
2023/04/08 10:15:46;;;;;;;;;12.50;8.50;;;;;41.35;12.76;102095.19;4999339;28;45356;-48
2023/04/08 10:18:13;;;;;;;;;15.40;9.40;;;;;41.45;12.94;102091.28;4999244;28;45160;-49
2023/04/08 10:20:38;;;;;;;;;10.80;10.80;;;;;41.66;13.30;102086.72;4999375;28;45460;-49
2023/04/08 10:23:17;;;;;;;;;15.00;12.00;;;;;41.69;13.13;102088.88;4999086;28;47063;-47
2023/04/08 10:25:46;;;;;;;;;17.20;9.40;;;;;42.00;12.63;102087.94;4999427;28;45378;-48
2023/04/08 10:28:11;;;;;;;;;12.40;11.60;;;;;41.76;12.63;102083.63;4999269;28;45350;-47
2023/04/08 10:30:36;;;;;;;;;12.25;11.25;;;;;41.54;12.73;102086.53;4999737;28;45258;-48
2023/04/08 10:33:28;;;;;;;;;13.25;11.50;;;;;41.00;13.50;102083.84;4998977;28;46179;-48
2023/04/08 10:35:58;;;;;;;;;15.60;12.00;;;;;41.35;12.48;102084.81;4988788;28;45248;-49
2023/04/08 10:38:23;;;;;;;;;16.20;12.00;;;;;41.62;12.91;102074.56;4999364;28;45438;-50
2023/04/08 10:40:50;;;;;;;;;10.00;10.00;;;;;41.97;12.21;102080.22;4999570;28;45410;-47
2023/04/08 10:43:15;;;;;;;;;11.80;11.80;;;;;42.35;12.12;102072.84;4998540;28;46155;-49
2023/04/08 10:45:42;;;;;;;;;9.25;7.00;;;;;42.17;11.52;102068.38;4981467;28;45443;-47
2023/04/08 10:48:16;;;;;;;;;8.00;7.60;;;;;42.13;12.76;102061.78;4998930;28;45460;-49
2023/04/08 10:50:43;;;;;;;;;10.00;10.00;;;;;41.92;12.36;102042.06;4998874;28;45434;-47
2023/04/08 10:53:09;;;;;;;;;9.00;9.00;;;;;42.14;12.33;102055.03;4998774;28;46195;-51
2023/04/08 10:55:34;;;;;;;;;10.00;10.00;;;;;41.78;12.87;102053.38;4998724;28;45381;-47
2023/04/08 10:58:10;;;;;;;;;11.00;9.50;;;;;41.35;12.50;102054.09;4998985;28;45667;-45
2023/04/08 11:00:37;;;;;;;;;10.20;8.80;;;;;41.04;12.41;102045.78;4998939;28;45421;-46
2023/04/08 11:03:07;;;;;;;;;15.80;10.60;;;;;40.91;13.06;102052.25;4997571;28;46040;-46
2023/04/08 11:05:35;;;;;;;;;11.80;8.40;;;;;40.14;13.14;102045.88;4998140;28;45401;-46
2023/04/08 11:08:01;;;;;;;;;15.80;9.60;;;;;39.70;13.18;102051.34;4998844;28;45279;-47
2023/04/08 11:10:27;;;;;;;;;11.00;10.00;;;;;39.74;13.46;102046.78;4998580;28;45297;-46
2023/04/08 11:12:57;;;;;;;;;9.60;9.40;;;;;39.80;13.37;102043.59;4998275;28;47099;-49
2023/04/08 11:15:27;;;;;;;;;11.80;10.80;;;;;39.55;13.72;102031.03;4998496;28;45250;-47
2023/04/08 11:17:53;;;;;;;;;10.60;10.60;;;;;39.05;13.95;102030.09;4998219;28;45179;-47